MRPV

Details ICAO MRPV (SYQ)
Name TOBIAS BOLANOS INTL
Region Costa Rica
Timezone America/Costa_Rica (UTC-6.0)
Plans Departing 47
Arriving 24
Stats Elevation 3,287 ft / 1,002 m (AMSL)
Location 9.957052° -84.139797°
Runways 1
Magnetic Variation 1.753° W
Sunrise 2017-12-13 11:45:50 UTC / 2017-12-13 05:45:50 Local
Sunset 2017-12-13 23:18:44 UTC / 2017-12-13 17:18:44 Local
Advertisement - Login to hide

Runways

ID Width Length Bearing (true) Bearing (mag) Surface Threshold Offset Overrun Length
09 60 ft / 18 m 5,304 ft / 1,617 m 95.09° 96.84° Asphalt 200 ft / 61 m 0 ft / 0 m
27 60 ft / 18 m 5,304 ft / 1,617 m 275.10° 276.85° Asphalt 0 ft / 0 m 0 ft / 0 m

Map

Weather


0- 5 10 15 20 25 30 35+ Temperature / ° C

Clouds and Precipitation
Forecast for 2017-12-14 00:00 UTC. Updated an hour ago

Ground ~20,000 ft ~40,000 ft Winds

METAR

MRPV 132200Z 09016G26KT 9999 SCT015 18/12 A3002 NOSIG

TAF

TAF TAF MRPV 131700Z 1318/1418 08015KT 9999 SCT030 SCT200 TX22/1417Z TN16/1408Z TEMPO 1318/1412 09015G25KT

Frequencies

Ground 121.70 MHz GND
Tower 118.30 MHz PAVAS TWR
Warning: Do not use this data for real-world aviation or navigation. No guarantee of current accuracy is given.